Time;durP1;ratioP1;P1;durP2;ratioP2;P2;SDS_P1;SDS_P2;PMS_P1;PMS_P2;Temp;Humidity;BMP_temperature;BMP_pressure;BME280_temperature;BME280_humidity;BME280_pressure;Samples;Min_cycle;Max_cycle;Signal;HPM_P1;HPM_P2
2023/04/30 00:01:44;;;;;;;11.43;4.80;;;4.70;74.30;;;;;;5008726;28;20103;-88
2023/04/30 00:04:09;;;;;;;16.33;4.37;;;4.60;74.20;;;;;;5011445;28;20045;-89
2023/04/30 00:06:35;;;;;;;16.47;5.47;;;4.60;74.30;;;;;;4988976;28;20046;-89
2023/04/30 00:09:02;;;;;;;13.33;6.50;;;4.50;74.50;;;;;;5024281;28;20136;-88
2023/04/30 00:11:28;;;;;;;13.73;5.90;;;4.50;74.40;;;;;;4991088;28;20052;-88
2023/04/30 00:13:55;;;;;;;8.43;4.70;;;4.50;74.30;;;;;;4993202;28;20144;-88
2023/04/30 00:16:21;;;;;;;10.57;4.80;;;4.40;74.30;;;;;;4993196;28;20056;-88
2023/04/30 00:18:47;;;;;;;11.40;5.07;;;4.30;74.20;;;;;;4977989;28;20118;-88
2023/04/30 00:21:14;;;;;;;11.07;5.30;;;4.30;74.20;;;;;;5009715;28;20118;-88
2023/04/30 00:23:40;;;;;;;10.47;4.93;;;4.20;74.30;;;;;;4975675;28;20560;-88
2023/04/30 00:26:05;;;;;;;9.90;4.70;;;4.20;74.30;;;;;;5009763;28;20081;-89
2023/04/30 00:28:31;;;;;;;13.53;5.03;;;4.20;74.30;;;;;;4994234;28;20042;-88
2023/04/30 00:30:57;;;;;;;13.57;4.80;;;4.20;74.40;;;;;;4988504;28;20782;-88
2023/04/30 00:33:23;;;;;;;12.73;4.50;;;4.10;74.50;;;;;;4974922;28;20062;-88
2023/04/30 00:35:49;;;;;;;10.83;4.30;;;4.10;74.50;;;;;;4992371;28;20052;-89
2023/04/30 00:38:15;;;;;;;10.00;4.27;;;4.10;74.50;;;;;;4988665;28;20149;-88
2023/04/30 00:40:42;;;;;;;21.40;5.00;;;4.10;74.50;;;;;;4991317;28;20173;-88
2023/04/30 00:43:07;;;;;;;11.77;5.63;;;4.10;74.70;;;;;;4989261;28;20125;-88
2023/04/30 00:45:34;;;;;;;14.50;4.70;;;4.10;74.70;;;;;;4979978;28;20120;-88
2023/04/30 00:48:00;;;;;;;13.80;5.00;;;4.10;74.70;;;;;;5001762;28;20069;-88
2023/04/30 00:50:26;;;;;;;13.73;5.10;;;4.10;74.70;;;;;;4989171;28;20143;-89
2023/04/30 00:52:52;;;;;;;13.57;5.10;;;4.10;74.70;;;;;;4990071;28;20060;-88
2023/04/30 00:55:18;;;;;;;12.50;4.70;;;4.10;74.80;;;;;;4992980;28;20068;-88
2023/04/30 00:57:45;;;;;;;10.77;4.83;;;4.10;74.70;;;;;;4984146;28;20053;-88
2023/04/30 01:00:12;;;;;;;15.83;6.10;;;4.10;75.00;;;;;;5002861;28;20046;-88
2023/04/30 01:02:39;;;;;;;16.37;5.90;;;4.10;75.10;;;;;;5007595;28;20041;-88
2023/04/30 01:05:05;;;;;;;10.93;5.40;;;4.10;75.50;;;;;;4977272;28;20048;-88
2023/04/30 01:07:33;;;;;;;18.47;5.43;;;4.10;75.30;;;;;;4985031;28;20045;-88
2023/04/30 01:09:59;;;;;;;12.87;6.47;;;4.00;75.40;;;;;;4993582;28;20100;-88
2023/04/30 01:12:46;;;;;;;16.20;7.97;;;4.00;75.20;;;;;;5008590;28;20190;-87
2023/04/30 01:15:41;;;;;;;17.60;9.90;;;4.00;75.20;;;;;;4991853;28;20187;-88
2023/04/30 01:18:32;;;;;;;16.20;7.67;;;3.90;75.20;;;;;;4971000;28;20054;-88
2023/04/30 01:21:04;;;;;;;16.88;10.40;;;3.90;75.30;;;;;;4990291;28;20057;-88
2023/04/30 01:23:49;;;;;;;27.23;14.67;;;3.90;75.10;;;;;;4976042;28;20736;-88
2023/04/30 01:26:34;;;;;;;16.47;8.30;;;3.90;75.00;;;;;;4974772;28;20061;-89
2023/04/30 01:29:03;;;;;;;22.77;8.97;;;3.90;75.10;;;;;;4989634;28;20073;-88
2023/04/30 01:31:28;;;;;;;17.20;7.53;;;3.90;75.00;;;;;;4989952;28;20054;-89
2023/04/30 01:33:54;;;;;;;19.07;6.37;;;3.90;75.00;;;;;;5005295;28;20054;-89
2023/04/30 01:36:37;;;;;;;18.27;6.30;;;3.90;75.10;;;;;;4989804;28;20133;-89
2023/04/30 01:39:09;;;;;;;14.57;6.43;;;3.90;75.30;;;;;;4990616;28;20468;-88
2023/04/30 01:42:04;;;;;;;17.20;6.33;;;3.90;75.50;;;;;;4992717;28;20049;-88
2023/04/30 01:44:48;;;;;;;21.87;9.87;;;3.90;75.60;;;;;;4991335;28;20045;-88
2023/04/30 01:47:20;;;;;;;19.10;8.50;;;3.90;75.90;;;;;;4968985;28;20054;-88
2023/04/30 01:50:04;;;;;;;;;;;3.90;75.90;;;;;;4975789;28;21102;-89
2023/04/30 01:52:36;;;;;;;18.00;6.17;;;4.00;76.00;;;;;;5020663;28;20088;-89
2023/04/30 01:55:12;;;;;;;16.27;7.40;;;4.00;75.70;;;;;;4976327;28;20057;-87
2023/04/30 01:57:42;;;;;;;13.67;6.47;;;4.00;75.50;;;;;;4988211;28;20438;-88
2023/04/30 02:00:10;;;;;;;14.70;6.87;;;4.00;75.60;;;;;;4994015;28;20140;-88
2023/04/30 02:02:37;;;;;;;10.97;4.17;;;4.10;76.10;;;;;;4988456;28;20050;-88
2023/04/30 02:05:03;;;;;;;10.63;4.03;;;4.10;76.10;;;;;;4983035;28;20517;-89
2023/04/30 02:07:40;;;;;;;10.50;5.13;;;4.10;75.80;;;;;;4989739;28;20061;-89
2023/04/30 02:10:07;;;;;;;14.10;5.13;;;4.20;75.80;;;;;;4994954;28;20053;-88
2023/04/30 02:12:34;;;;;;;8.10;3.90;;;4.20;76.00;;;;;;4975549;28;20042;-89
2023/04/30 02:15:01;;;;;;;12.70;4.80;;;4.20;76.00;;;;;;5001037;28;20042;-88
2023/04/30 02:17:26;;;;;;;12.37;4.60;;;4.30;75.90;;;;;;4992836;28;20115;-89
2023/04/30 02:19:52;;;;;;;7.27;4.60;;;4.30;75.90;;;;;;5003401;28;20057;-90
2023/04/30 02:22:18;;;;;;;14.40;6.10;;;4.40;76.00;;;;;;4994000;28;20052;-89
2023/04/30 02:24:44;;;;;;;14.00;5.87;;;4.40;75.90;;;;;;4975436;28;20052;-88
2023/04/30 02:27:09;;;;;;;9.53;5.40;;;4.40;76.00;;;;;;4984962;28;20041;-88
2023/04/30 02:29:35;;;;;;;13.00;5.30;;;4.40;76.00;;;;;;5011432;28;20075;-89
2023/04/30 02:32:05;;;;;;;11.67;4.83;;;4.50;76.00;;;;;;4977302;28;20045;-90
2023/04/30 02:34:33;;;;;;;11.20;5.17;;;4.50;76.00;;;;;;4992034;28;20061;-88
2023/04/30 02:36:59;;;;;;;14.73;5.20;;;4.50;76.00;;;;;;4987361;28;20107;-88
2023/04/30 02:39:28;;;;;;;7.43;4.57;;;4.50;76.00;;;;;;4978178;28;20088;-88
2023/04/30 02:41:57;;;;;;;12.80;6.03;;;4.50;76.10;;;;;;4997698;28;20045;-88
2023/04/30 02:44:26;;;;;;;13.37;5.60;;;4.50;76.30;;;;;;4987082;28;20058;-89
2023/04/30 02:46:52;;;;;;;13.00;5.97;;;4.60;76.20;;;;;;4991053;28;20474;-88
2023/04/30 02:49:19;;;;;;;12.93;5.30;;;4.60;76.10;;;;;;4984238;28;20049;-89
2023/04/30 02:51:45;;;;;;;10.53;5.40;;;4.70;76.20;;;;;;4984819;28;20054;-89
2023/04/30 02:54:11;;;;;;;16.17;5.80;;;4.70;76.10;;;;;;5007382;28;20064;-89
2023/04/30 02:56:38;;;;;;;11.03;5.13;;;4.70;76.20;;;;;;4996661;28;20049;-89
2023/04/30 02:59:04;;;;;;;16.23;5.50;;;4.70;76.20;;;;;;4994754;28;20054;-90
2023/04/30 03:01:30;;;;;;;8.73;5.13;;;4.70;76.20;;;;;;5030635;28;20433;-89
2023/04/30 03:03:57;;;;;;;14.87;5.40;;;4.80;76.10;;;;;;4981863;28;20062;-89
2023/04/30 03:06:22;;;;;;;17.57;6.03;;;4.90;76.10;;;;;;4977558;28;20079;-89
2023/04/30 03:08:48;;;;;;;13.87;5.40;;;4.90;76.40;;;;;;4993023;28;20536;-88
2023/04/30 03:11:14;;;;;;;13.13;5.97;;;4.90;76.50;;;;;;4997200;28;20132;-89
2023/04/30 03:13:41;;;;;;;11.80;5.20;;;4.90;76.60;;;;;;4984021;28;20120;-88
2023/04/30 03:16:07;;;;;;;13.17;5.60;;;4.90;76.40;;;;;;4989991;28;20049;-89
2023/04/30 03:18:33;;;;;;;14.60;5.53;;;4.90;76.40;;;;;;4972647;28;20056;-88
2023/04/30 03:20:59;;;;;;;12.90;5.40;;;4.90;76.40;;;;;;5000408;28;20081;-89
2023/04/30 03:23:28;;;;;;;15.23;5.77;;;4.90;76.40;;;;;;4999578;28;20128;-89
2023/04/30 03:25:54;;;;;;;10.97;4.90;;;4.90;76.60;;;;;;4994302;28;20390;-89
2023/04/30 03:28:20;;;;;;;10.40;4.90;;;5.00;76.60;;;;;;4974167;28;20053;-88
2023/04/30 03:30:46;;;;;;;14.43;5.20;;;4.90;76.50;;;;;;4980455;28;20057;-89
2023/04/30 03:33:11;;;;;;;13.53;5.73;;;4.90;76.40;;;;;;4985691;28;20157;-89
2023/04/30 03:35:37;;;;;;;15.27;5.43;;;4.90;76.40;;;;;;4990798;28;20041;-89
2023/04/30 03:38:03;;;;;;;11.93;5.27;;;5.00;76.40;;;;;;4997459;28;20079;-89
2023/04/30 03:40:29;;;;;;;13.53;5.07;;;5.00;76.40;;;;;;4993333;28;20119;-89
2023/04/30 03:42:55;;;;;;;16.27;5.53;;;5.00;76.30;;;;;;5002881;28;20128;-89
2023/04/30 03:45:21;;;;;;;16.57;5.10;;;4.90;76.30;;;;;;4996821;28;20048;-90
2023/04/30 03:47:47;;;;;;;12.13;5.03;;;4.90;76.20;;;;;;4971323;28;20117;-89
2023/04/30 03:50:13;;;;;;;14.67;5.40;;;4.90;76.20;;;;;;5002936;28;20657;-89
2023/04/30 03:52:39;;;;;;;15.70;5.20;;;4.90;76.20;;;;;;4986050;28;20058;-88
2023/04/30 03:55:06;;;;;;;9.57;4.90;;;4.80;76.20;;;;;;5000185;28;20512;-89
2023/04/30 03:57:32;;;;;;;10.50;4.77;;;4.70;76.20;;;;;;4971303;28;20125;-89
2023/04/30 03:59:58;;;;;;;10.13;4.73;;;4.70;76.20;;;;;;4999958;28;20522;-88
2023/04/30 04:02:24;;;;;;;15.30;5.27;;;4.70;76.20;;;;;;4991895;28;20049;-88
2023/04/30 04:04:50;;;;;;;8.97;4.50;;;4.60;76.50;;;;;;4978023;28;20180;-88
2023/04/30 04:07:16;;;;;;;12.97;5.20;;;4.50;76.40;;;;;;4978401;28;20046;-88
2023/04/30 04:09:42;;;;;;;15.03;4.77;;;4.50;76.30;;;;;;4998152;28;20056;-89
2023/04/30 04:12:08;;;;;;;10.20;4.53;;;4.50;76.30;;;;;;4997433;28;20670;-89
2023/04/30 04:14:34;;;;;;;13.30;4.90;;;4.50;76.30;;;;;;5031414;28;20092;-88
2023/04/30 04:17:00;;;;;;;17.00;4.73;;;4.50;76.40;;;;;;5000471;28;20057;-89
2023/04/30 04:19:26;;;;;;;11.83;4.30;;;4.40;76.30;;;;;;4994664;28;20056;-89
2023/04/30 04:21:52;;;;;;;10.53;4.60;;;4.40;76.30;;;;;;5005686;28;20161;-88
2023/04/30 04:24:18;;;;;;;13.17;4.93;;;4.40;76.40;;;;;;4980964;28;20042;-89
2023/04/30 04:26:44;;;;;;;15.40;5.33;;;4.40;76.50;;;;;;5009097;28;20037;-89
2023/04/30 04:29:11;;;;;;;14.47;5.17;;;4.40;76.40;;;;;;4980746;28;20050;-88
2023/04/30 04:31:37;;;;;;;11.43;5.40;;;4.40;76.50;;;;;;4992567;28;20052;-89
2023/04/30 04:34:04;;;;;;;12.13;5.63;;;4.40;76.60;;;;;;4992069;28;20144;-88
2023/04/30 04:36:32;;;;;;;11.93;6.20;;;4.40;76.60;;;;;;4981437;28;20064;-90
2023/04/30 04:39:02;;;;;;;16.20;6.70;;;4.40;76.70;;;;;;5012894;28;20078;-88
2023/04/30 04:41:32;;;;;;;16.27;9.03;;;4.40;77.10;;;;;;5031173;28;20049;-88
2023/04/30 04:44:00;;;;;;;24.97;15.07;;;4.40;77.00;;;;;;4980451;28;20262;-87
2023/04/30 04:46:27;;;;;;;23.07;11.90;;;4.40;76.90;;;;;;4992596;28;20520;-89
2023/04/30 04:48:53;;;;;;;15.03;6.40;;;4.40;77.00;;;;;;4996220;28;20058;-88
2023/04/30 04:51:19;;;;;;;13.53;6.10;;;4.40;77.00;;;;;;4994192;28;20048;-89
2023/04/30 04:53:45;;;;;;;20.90;6.87;;;4.40;77.10;;;;;;4993680;28;20112;-89
2023/04/30 04:56:11;;;;;;;21.10;7.33;;;4.40;77.20;;;;;;5015763;28;20054;-89
2023/04/30 04:58:37;;;;;;;16.87;6.87;;;4.50;77.50;;;;;;5003381;28;20062;-89
2023/04/30 05:01:04;;;;;;;17.37;6.83;;;4.50;77.40;;;;;;4992567;28;20528;-88
2023/04/30 05:03:31;;;;;;;16.83;6.53;;;4.50;77.70;;;;;;4982890;28;20046;-89
2023/04/30 05:05:57;;;;;;;15.90;6.63;;;4.60;77.60;;;;;;4996908;28;20046;-88
2023/04/30 05:08:23;;;;;;;18.23;6.13;;;4.60;77.70;;;;;;5005016;28;20120;-89
2023/04/30 05:10:49;;;;;;;18.17;6.47;;;4.70;77.50;;;;;;4993606;28;20049;-88
2023/04/30 05:13:16;;;;;;;12.53;6.10;;;4.70;77.50;;;;;;4975188;28;20046;-89
2023/04/30 05:15:41;;;;;;;16.00;6.03;;;4.70;77.50;;;;;;4975943;28;20056;-89
2023/04/30 05:18:07;;;;;;;14.47;5.53;;;4.80;77.50;;;;;;4971957;28;20795;-88
2023/04/30 05:20:33;;;;;;;16.20;5.80;;;4.90;77.30;;;;;;4993142;28;20050;-88
2023/04/30 05:22:59;;;;;;;15.50;5.47;;;5.00;77.30;;;;;;5007079;28;20141;-89
2023/04/30 05:25:25;;;;;;;9.70;5.30;;;5.00;77.40;;;;;;4992437;28;20468;-89
2023/04/30 05:27:50;;;;;;;20.90;5.97;;;5.00;77.30;;;;;;4986460;28;20526;-89
2023/04/30 05:30:16;;;;;;;15.70;5.67;;;5.10;77.50;;;;;;4975573;28;20494;-89
2023/04/30 05:32:49;;;;;;;19.10;6.50;;;5.20;77.80;;;;;;5007968;28;20140;-89
2023/04/30 05:35:15;;;;;;;17.10;6.23;;;5.30;77.80;;;;;;4976517;28;20401;-88
2023/04/30 05:37:41;;;;;;;14.67;5.43;;;5.50;77.70;;;;;;4986306;28;20141;-88
2023/04/30 05:40:08;;;;;;;15.90;5.83;;;5.50;77.50;;;;;;4975842;28;20148;-88
2023/04/30 05:42:34;;;;;;;15.10;5.83;;;5.60;77.70;;;;;;5016026;28;20048;-88
2023/04/30 05:45:01;;;;;;;15.97;5.67;;;5.70;77.50;;;;;;4991250;28;20046;-89
2023/04/30 05:47:27;;;;;;;16.90;5.63;;;5.80;77.30;;;;;;4969146;28;20075;-89
2023/04/30 05:49:56;;;;;;;22.27;6.57;;;5.90;77.40;;;;;;5008387;28;20532;-87
2023/04/30 05:52:22;;;;;;;14.23;5.57;;;6.00;77.30;;;;;;4973552;28;20100;-89
2023/04/30 05:54:53;;;;;;;22.33;5.87;;;6.10;77.10;;;;;;4975693;28;20493;-87
2023/04/30 05:57:19;;;;;;;22.73;6.30;;;6.20;77.10;;;;;;4994787;28;20099;-89
2023/04/30 05:59:48;;;;;;;14.83;5.80;;;6.20;76.90;;;;;;5002999;28;20492;-87
2023/04/30 06:02:14;;;;;;;13.77;5.23;;;6.20;76.80;;;;;;4954818;28;20042;-88
2023/04/30 06:04:41;;;;;;;13.17;5.50;;;6.30;76.80;;;;;;4975047;28;20046;-88
2023/04/30 06:07:07;;;;;;;15.37;5.60;;;6.40;76.80;;;;;;4984999;28;20339;-89
2023/04/30 06:09:32;;;;;;;24.50;5.93;;;6.50;76.80;;;;;;4976040;28;20557;-88
2023/04/30 06:11:58;;;;;;;21.30;6.00;;;6.60;76.90;;;;;;4990829;28;20088;-89
2023/04/30 06:14:24;;;;;;;13.33;5.03;;;6.60;76.60;;;;;;4988056;28;20046;-89
2023/04/30 06:16:51;;;;;;;14.23;5.80;;;6.70;76.60;;;;;;4984470;28;20045;-89
2023/04/30 06:19:20;;;;;;;17.97;6.40;;;6.80;76.80;;;;;;4996351;28;20128;-88
2023/04/30 06:21:48;;;;;;;18.37;6.20;;;6.80;76.60;;;;;;4998527;28;20441;-89
2023/04/30 06:24:14;;;;;;;18.77;5.80;;;6.90;76.40;;;;;;4995703;28;20045;-90
2023/04/30 06:26:41;;;;;;;17.40;6.47;;;6.90;76.20;;;;;;4976510;28;20726;-89
2023/04/30 06:29:07;;;;;;;16.10;6.27;;;7.00;76.20;;;;;;4981069;28;20284;-89
2023/04/30 06:31:33;;;;;;;18.83;6.00;;;7.00;76.10;;;;;;4991949;28;20417;-89
2023/04/30 06:33:58;;;;;;;17.30;5.90;;;7.10;75.80;;;;;;4993321;28;20062;-89
2023/04/30 06:36:24;;;;;;;20.33;6.50;;;7.20;75.90;;;;;;4974206;28;20652;-89
2023/04/30 06:38:50;;;;;;;17.87;6.07;;;7.20;75.80;;;;;;4988590;28;20092;-88
2023/04/30 06:41:16;;;;;;;16.70;6.23;;;7.30;75.40;;;;;;4990779;28;20103;-89
2023/04/30 06:43:43;;;;;;;22.83;7.20;;;7.40;75.60;;;;;;4990224;28;20050;-89
2023/04/30 06:46:09;;;;;;;21.43;6.60;;;7.40;75.70;;;;;;5018933;28;20049;-89
2023/04/30 06:48:34;;;;;;;15.57;6.27;;;7.50;75.60;;;;;;4988575;28;20057;-89
2023/04/30 06:51:00;;;;;;;17.77;6.03;;;7.50;75.10;;;;;;4989597;28;20375;-89
2023/04/30 06:53:27;;;;;;;19.27;5.30;;;7.60;75.30;;;;;;5002378;28;20042;-90
2023/04/30 06:55:54;;;;;;;16.77;4.90;;;7.70;75.40;;;;;;4969214;28;20057;-89
2023/04/30 06:58:23;;;;;;;17.00;4.60;;;7.80;74.10;;;;;;4987295;28;20038;-89
2023/04/30 07:00:51;;;;;;;18.40;4.43;;;7.80;73.70;;;;;;4960304;28;20045;-89
2023/04/30 07:03:17;;;;;;;13.37;4.63;;;7.80;73.90;;;;;;4980541;28;20072;-89
2023/04/30 07:05:43;;;;;;;16.43;4.43;;;7.80;73.40;;;;;;4955676;28;20078;-89
2023/04/30 07:08:09;;;;;;;15.30;4.47;;;7.80;73.20;;;;;;4949052;28;20042;-89
2023/04/30 07:10:35;;;;;;;16.63;4.70;;;7.90;72.80;;;;;;4958673;28;20054;-89
2023/04/30 07:13:01;;;;;;;14.27;4.20;;;7.90;72.40;;;;;;4974817;28;20057;-89
2023/04/30 07:15:26;;;;;;;13.13;3.97;;;7.90;72.20;;;;;;5010286;28;20640;-89
2023/04/30 07:17:52;;;;;;;20.57;4.47;;;8.00;72.50;;;;;;4984540;28;20058;-88
2023/04/30 07:20:18;;;;;;;16.60;3.70;;;8.10;72.70;;;;;;4957936;28;20120;-89
2023/04/30 07:22:44;;;;;;;12.17;3.73;;;8.20;71.70;;;;;;5002028;28;20057;-89
2023/04/30 07:25:11;;;;;;;14.67;4.07;;;8.30;72.00;;;;;;5015738;28;20046;-91
2023/04/30 07:45:08;;;;;;;14.20;4.07;;;9.00;70.50;;;;;;4864501;29;20056;-93
2023/04/30 07:47:34;;;;;;;16.40;4.00;;;9.00;70.20;;;;;;4882174;29;20619;-89
2023/04/30 07:50:06;;;;;;;12.13;3.73;;;9.10;70.90;;;;;;4918132;29;20060;-91
2023/04/30 07:52:32;;;;;;;12.90;4.23;;;9.20;70.20;;;;;;4876470;29;20127;-90
2023/04/30 07:54:58;;;;;;;14.10;4.20;;;9.20;70.60;;;;;;4917417;28;20694;-91
2023/04/30 07:57:25;;;;;;;16.30;3.80;;;9.30;70.40;;;;;;4975025;28;20047;-91
2023/04/30 07:59:56;;;;;;;11.13;3.77;;;9.40;70.40;;;;;;4982310;28;20105;-92
2023/04/30 08:02:22;;;;;;;10.50;3.30;;;9.40;69.80;;;;;;4968383;28;20197;-91
2023/04/30 08:04:48;;;;;;;13.37;3.50;;;9.40;69.70;;;;;;4969999;28;20038;-91
2023/04/30 08:07:17;;;;;;;14.37;3.47;;;9.40;69.40;;;;;;4933166;28;20058;-91
2023/04/30 08:09:42;;;;;;;12.63;3.77;;;9.40;69.20;;;;;;4969451;28;20087;-92
2023/04/30 08:12:11;;;;;;;19.27;3.70;;;9.30;69.00;;;;;;4971104;28;20087;-91
2023/04/30 08:14:44;;;;;;;15.57;3.93;;;9.30;69.20;;;;;;4981246;28;20045;-92
2023/04/30 08:17:10;;;;;;;15.80;3.50;;;9.20;68.80;;;;;;4996308;28;20076;-92
2023/04/30 08:19:36;;;;;;;15.70;4.10;;;9.30;69.00;;;;;;5003261;28;20549;-92
2023/04/30 08:22:02;;;;;;;17.77;4.13;;;9.50;69.30;;;;;;5002799;28;20050;-91
2023/04/30 08:24:30;;;;;;;14.80;3.30;;;9.50;68.70;;;;;;4978660;28;20041;-93
2023/04/30 08:26:56;;;;;;;18.40;3.57;;;9.60;68.50;;;;;;4988874;28;20057;-91
2023/04/30 08:29:25;;;;;;;13.83;4.10;;;9.70;68.80;;;;;;4975708;28;20038;-92
2023/04/30 08:32:10;;;;;;;;;;;;;;;;;;;;;
2023/04/30 08:34:42;;;;;;;12.57;3.67;;;9.80;68.50;;;;;;4994456;28;20529;-90
2023/04/30 08:37:24;;;;;;;13.57;3.83;;;9.80;68.60;;;;;;4982497;28;20045;-93
2023/04/30 08:52:03;;;;;;;12.00;3.50;;;9.80;67.00;;;;;;5001412;28;20114;-92
2023/04/30 08:58:12;;;;;;;15.10;3.70;;;9.80;67.20;;;;;;5015193;28;20053;-92
2023/04/30 09:00:50;;;;;;;16.90;3.97;;;9.90;67.50;;;;;;4986443;28;20046;-95
2023/04/30 09:22:31;;;;;;;13.13;3.50;;;10.40;66.70;;;;;;4996289;28;20518;-93
2023/04/30 09:55:11;;;;;;;15.17;4.80;;;10.60;65.00;;;;;;4875409;29;20161;-94
2023/04/30 10:20:17;;;;;;;13.20;4.05;;;11.50;63.20;;;;;;4825877;29;20054;-93
2023/04/30 10:23:42;;;;;;;;;;;;;;;;;;;;;
2023/04/30 10:26:26;;;;;;;11.50;3.60;;;11.70;65.00;;;;;;4834368;29;20061;-93
2023/04/30 10:28:59;;;;;;;13.45;3.97;;;11.90;63.70;;;;;;4787181;29;20046;-94
2023/04/30 10:31:35;;;;;;;8.23;3.75;;;12.00;64.30;;;;;;4836697;29;20062;-93
2023/04/30 10:34:10;;;;;;;13.05;3.75;;;12.00;63.80;;;;;;4836614;29;20053;-93
2023/04/30 10:39:55;;;;;;;9.95;3.60;;;12.10;64.10;;;;;;4892203;28;20088;-91
2023/04/30 10:42:26;;;;;;;10.15;3.42;;;12.10;63.70;;;;;;4948106;28;20042;-92
2023/04/30 10:51:55;;;;;;;13.52;3.35;;;12.20;64.20;;;;;;4889250;29;20139;-91
2023/04/30 10:54:30;;;;;;;10.32;3.28;;;12.30;62.00;;;;;;4840974;29;20049;-90
2023/04/30 10:57:33;;;;;;;10.80;3.10;;;12.30;63.20;;;;;;4885639;29;20050;-92
2023/04/30 11:00:31;;;;;;;9.18;3.28;;;12.50;63.90;;;;;;4889676;29;20429;-94
2023/04/30 11:03:07;;;;;;;9.07;3.50;;;12.50;62.60;;;;;;4896105;28;20148;-91
2023/04/30 11:05:40;;;;;;;6.05;3.05;;;12.50;63.30;;;;;;4984517;28;20050;-91
2023/04/30 11:08:53;;;;;;;10.07;3.55;;;12.50;63.30;;;;;;4973632;28;20498;-93
2023/04/30 11:12:27;;;;;;;;;;;;;;;;;;;;;
2023/04/30 11:15:30;;;;;;;8.98;3.35;;;12.50;61.60;;;;;;4992429;28;20055;-95
2023/04/30 11:18:30;;;;;;;7.60;3.55;;;12.50;60.80;;;;;;4972399;28;20053;-93
2023/04/30 11:21:09;;;;;;;10.43;3.65;;;12.50;62.50;;;;;;4957540;28;20448;-93
2023/04/30 11:23:42;;;;;;;8.05;3.53;;;12.50;63.50;;;;;;4976549;28;20522;-92
2023/04/30 11:26:42;;;;;;;10.57;4.95;;;12.70;62.20;;;;;;4975340;28;20053;-94
2023/04/30 11:29:40;;;;;;;10.05;3.80;;;12.70;61.90;;;;;;4975477;28;20058;-95
2023/04/30 11:32:15;;;;;;;10.32;2.90;;;12.70;62.80;;;;;;4965899;28;20038;-92
2023/04/30 11:35:28;;;;;;;6.68;2.88;;;12.80;62.70;;;;;;4965197;28;20578;-93
2023/04/30 11:37:54;;;;;;;;;;;12.90;62.60;;;;;;4970784;28;20058;-91
2023/04/30 11:40:22;;;;;;;6.68;2.70;;;12.80;62.00;;;;;;4976083;28;19925;-93
2023/04/30 11:42:48;;;;;;;7.82;3.92;;;12.80;62.00;;;;;;4989875;28;20056;-93
2023/04/30 11:46:13;;;;;;;10.60;3.08;;;12.90;62.40;;;;;;4996403;28;20053;-93
2023/04/30 11:49:11;;;;;;;;;;;;;;;;;;;;;
2023/04/30 11:51:51;;;;;;;6.30;2.55;;;13.10;62.40;;;;;;4996471;28;20057;-93
2023/04/30 11:57:08;;;;;;;4.95;2.00;;;13.10;62.50;;;;;;4976319;28;20680;-94
2023/04/30 11:59:42;;;;;;;5.32;2.63;;;13.20;62.40;;;;;;4957369;28;20055;-93
2023/04/30 12:02:08;;;;;;;7.45;2.80;;;13.30;62.00;;;;;;4913175;28;20709;-91
2023/04/30 12:04:38;;;;;;;7.15;3.03;;;13.30;62.10;;;;;;4954722;28;20057;-93
2023/04/30 13:06:26;;;;;;;;;;;14.10;61.90;;;;;;4930266;29;20055;-93
2023/04/30 13:09:34;;;;;;;4.45;2.00;;;14.10;61.10;;;;;;4893488;29;20001;-93
2023/04/30 13:15:53;;;;;;;4.25;1.50;;;14.20;62.30;;;;;;4866052;29;20540;-94
2023/04/30 13:21:44;;;;;;;3.70;1.60;;;14.30;62.20;;;;;;4808191;29;20106;-94
2023/04/30 13:24:49;;;;;;;5.53;1.80;;;14.40;62.00;;;;;;4866983;29;20144;-95
2023/04/30 13:34:36;;;;;;;2.65;1.75;;;14.50;60.90;;;;;;4847560;29;20549;-93
2023/04/30 13:37:17;;;;;;;;;;;;;;;;;;;;;
2023/04/30 13:44:21;;;;;;;4.85;1.80;;;14.60;60.40;;;;;;4880441;29;20048;-95
2023/04/30 13:59:08;;;;;;;;;;;;;;;;;;;;;
2023/04/30 14:18:36;;;;;;;;;;;;;;;;;;;;;
2023/04/30 14:37:00;;;;;;;;;;;;;;;;;;;;;
2023/04/30 14:40:03;;;;;;;;;;;;;;;;;;;;;
2023/04/30 14:50:24;;;;;;;5.30;2.30;;;15.80;60.50;;;;;;4837856;29;20072;-92
2023/04/30 15:40:48;;;;;;;;;;;;;;;;;;;;;
2023/04/30 16:25:54;;;;;;;;;;;;;;;;;;;;;
2023/04/30 16:38:15;;;;;;;5.78;1.25;;;15.90;59.50;;;;;;4613962;31;20121;-95
2023/04/30 16:48:40;;;;;;;5.40;1.73;;;15.60;60.80;;;;;;4592913;31;20208;-93
2023/04/30 16:55:44;;;;;;;4.55;1.77;;;15.50;61.00;;;;;;4624264;31;20090;-94
2023/04/30 17:05:54;;;;;;;6.68;2.28;;;15.00;61.50;;;;;;4571104;31;20060;-92
2023/04/30 17:16:46;;;;;;;7.03;2.65;;;14.50;63.50;;;;;;4517819;31;20060;-95
2023/04/30 18:40:37;;;;;;;16.42;6.07;;;10.90;68.70;;;;;;5758861;22;10722214;-91
2023/04/30 18:43:19;;;;;;;13.73;5.70;;;10.90;69.00;;;;;;6105761;23;20137;-96
2023/04/30 18:46:46;;;;;;;17.38;5.68;;;10.80;69.30;;;;;;6116878;23;20034;-96
2023/04/30 18:49:18;;;;;;;12.67;6.40;;;10.70;69.50;;;;;;6109840;23;20032;-95
2023/04/30 18:51:48;;;;;;;13.82;6.43;;;10.50;69.40;;;;;;6103328;23;20026;-92
2023/04/30 18:54:30;;;;;;;17.13;7.03;;;10.40;69.60;;;;;;6092893;23;20041;-93
2023/04/30 18:56:59;;;;;;;;;;;10.30;70.00;;;;;;6099979;23;20100;-93
2023/04/30 18:59:30;;;;;;;12.95;6.18;;;10.20;70.50;;;;;;6063263;23;19939;-93
2023/04/30 19:02:01;;;;;;;13.63;6.47;;;10.10;69.80;;;;;;6080760;23;20457;-93
2023/04/30 19:08:28;;;;;;;16.83;7.78;;;10.00;70.40;;;;;;6100626;23;20096;-93
2023/04/30 19:15:30;;;;;;;;;;;;;;;;;;;;;
2023/04/30 19:18:40;;;;;;;;;;;;;;;;;;;;;
2023/04/30 19:22:06;;;;;;;15.07;8.47;;;9.50;70.90;;;;;;5921510;24;20025;-92
2023/04/30 19:25:31;;;;;;;17.23;8.87;;;9.40;71.10;;;;;;5903754;24;20037;-92
2023/04/30 19:28:20;;;;;;;;;;;;;;;;;;;;;
2023/04/30 19:31:10;;;;;;;;;;;;;;;;;;;;;
2023/04/30 19:33:49;;;;;;;15.10;8.67;;;9.20;71.10;;;;;;5973510;23;20504;-92
2023/04/30 19:40:20;;;;;;;;;;;;;;;;;;;;;
2023/04/30 19:43:15;;;;;;;23.80;10.23;;;8.90;71.60;;;;;;5948624;23;20020;-91
2023/04/30 19:45:58;;;;;;;25.40;10.50;;;8.90;71.60;;;;;;6086332;23;20026;-92
2023/04/30 19:48:34;;;;;;;26.60;9.77;;;8.80;72.00;;;;;;6090831;23;20022;-91
2023/04/30 19:51:05;;;;;;;20.90;10.13;;;8.80;71.80;;;;;;6096802;23;20180;-92
2023/04/30 19:53:31;;;;;;;20.77;9.77;;;8.70;71.80;;;;;;6090697;23;20394;-91
2023/04/30 19:55:58;;;;;;;18.63;9.90;;;8.60;71.90;;;;;;6092366;23;20022;-91
2023/04/30 19:58:34;;;;;;;21.83;9.90;;;8.60;71.90;;;;;;6092881;23;20049;-91
2023/04/30 20:01:04;;;;;;;26.87;9.63;;;8.60;72.10;;;;;;6098615;23;20077;-92
2023/04/30 20:03:50;;;;;;;21.77;11.20;;;8.50;72.10;;;;;;6090900;23;20053;-96
2023/04/30 20:06:15;;;;;;;23.00;10.97;;;8.50;72.30;;;;;;6066738;23;20074;-94
2023/04/30 20:08:44;;;;;;;16.40;10.47;;;8.50;72.10;;;;;;6062248;23;20027;-91
2023/04/30 20:11:13;;;;;;;21.60;11.30;;;8.40;72.10;;;;;;6045716;23;20022;-92
2023/04/30 20:13:39;;;;;;;23.17;13.67;;;8.40;72.10;;;;;;6082402;23;20026;-91
2023/04/30 20:20:51;;;;;;;22.23;12.03;;;8.30;72.80;;;;;;6008446;23;20088;-94
2023/04/30 20:24:33;;;;;;;21.80;11.63;;;8.20;72.70;;;;;;5960472;23;20047;-94
2023/04/30 20:31:49;;;;;;;;;;;;;;;;;;;;;
2023/04/30 20:38:22;;;;;;;;;;;;;;;;;;;;;
2023/04/30 20:48:15;;;;;;;17.20;9.07;;;7.90;72.80;;;;;;5838464;24;20481;-93
2023/04/30 20:50:57;;;;;;;17.03;8.47;;;7.80;73.20;;;;;;5852955;23;20012;-94
2023/04/30 20:53:53;;;;;;;11.13;7.77;;;7.80;73.00;;;;;;6095511;23;20018;-92
2023/04/30 21:03:43;;;;;;;;;;;;;;;;;;;;;
2023/04/30 21:06:29;;;;;;;13.10;7.57;;;7.70;73.20;;;;;;6062802;23;20030;-94
2023/04/30 21:09:22;;;;;;;15.40;7.63;;;7.60;73.30;;;;;;5918411;23;20027;-93
2023/04/30 21:11:52;;;;;;;11.23;7.27;;;7.60;73.50;;;;;;6019206;23;20026;-92
2023/04/30 21:17:54;;;;;;;11.80;6.82;;;7.60;73.30;;;;;;5958569;23;20027;-92
2023/04/30 21:38:20;;;;;;;;;;;7.50;73.40;;;;;;5889173;24;20041;-93
2023/04/30 21:41:44;;;;;;;;;;;;;;;;;;;;;
2023/04/30 21:48:26;;;;;;;10.97;5.47;;;7.50;73.40;;;;;;5814950;24;20018;-93
2023/04/30 21:55:27;;;;;;;13.13;5.57;;;7.50;73.90;;;;;;5759144;24;20482;-93
2023/04/30 21:58:27;;;;;;;7.73;5.23;;;7.50;73.60;;;;;;5747355;24;20027;-93
2023/04/30 22:01:19;;;;;;;8.87;5.40;;;7.50;73.40;;;;;;5714933;25;20028;-93
2023/04/30 22:08:42;;;;;;;9.47;4.67;;;7.50;73.20;;;;;;5629912;24;20024;-93
2023/04/30 22:12:08;;;;;;;10.73;4.83;;;7.50;73.20;;;;;;5697564;25;20571;-93
2023/04/30 22:15:33;;;;;;;;;;;;;;;;;;;;;
2023/04/30 22:19:25;;;;;;;;;;;;;;;;;;;;;
2023/04/30 23:06:57;;;;;;;;;;;;;;;;;;;;;
2023/04/30 23:10:56;;;;;;;6.87;4.50;;;7.10;72.30;;;;;;6092253;23;20075;-94
2023/04/30 23:17:37;;;;;;;;;;;;;;;;;;;;;
2023/04/30 23:27:58;;;;;;;10.60;4.80;;;7.00;72.20;;;;;;5933327;23;20584;-92
2023/04/30 23:37:00;;;;;;;;;;;;;;;;;;;;;
2023/04/30 23:40:43;;;;;;;;;;;;;;;;;;;;;
2023/04/30 23:47:42;;;;;;;;;;;;;;;;;;;;;
2023/04/30 23:57:52;;;;;;;11.90;5.10;;;6.90;72.40;;;;;;5856658;24;20024;-93
